ESMK/KID METAR and TAF weather

Enter ICAO airport designator
Station Type Date Time Source
ESMK METAR 2021/09/28 16:20 UTC NOAA

ESMK 281620Z AUTO 01006KT 9999 SCT008/// OVC025/// 15/14 Q1021


Station Type Date Time Source
ESMK Decoded METAR 2021/09/28 16:20 UTC NOAA

Kristianstad / Everod, Sweden (ESMK) 55-55N 014-05E
Sep 28, 2021 - 12:20 PM EDT / 2021.09.28 1620 UTC
Wind: from the N (010 degrees) at 7 MPH (6 KT):0
Visibility: greater than 7 mile(s):0
Sky conditions: overcast
Temperature: 59 F (15 C)
Dew Point: 57 F (14 C)
Relative Humidity: 93%
Pressure (altimeter): 30.15 in. Hg (1021 hPa)
ob: ESMK 281620Z AUTO 01006KT 9999 SCT008/// OVC025/// 15/14 Q1021
cycle: 16

Station Type Date Time Source
ESMK TAF 2020/07/19 09:57 UTC NOAA

TAF TAF ESMK 190930Z 1909/1921 13008KT CAVOK PROB40 1910/1919 SCT030TCU

Example: see airport list